Tiempo atmosférico en la estación meteorológica de Cebreros, Ávila (850 m.)



Fecha
DESCASC
Temp. máxima en grados centígrados (hora)
DESCASC
Temp. mínima en grados centígrados (hora)
DESCASC
Temp. media en grados centígrados
DESCASC
Racha de viento máxima en m/sg (hora)
DESCASC
Velocidad máxima media en intervalos de 10 minutos(hora)
DESCASC
Precipitaciones diarias en mm
DESCASC
Precipitaciones de 00:00 a 06:00 en mm
DESCASC
Precipitaciones de 06:00 a 12:00 en mm
DESCASC
Precipitaciones de 12:00 a 18:00 en mm
DESCASC
Precipitaciones de 18:00 a 24:00 en mm
DESCASC
23-05-2018 25.9 (16:50) 10.8 (06:50) 18.3 9.72 (19:30) 3.61 (17:30) 0 0 0 0 0
22-05-2018 24.3 (14:30) 9.4 (06:30) 16.8 10 (15:40) 5.56 (15:30) 0 0 0 0 0
21-05-2018 23.1 (18:50) 9.4 (03:30) 16.3 8.33 (15:30) 5 (17:30) 1 0.2 0 0.8 0
20-05-2018 22.2 (15:10) 9.9 (00:00) 16.1 8.89 (17:40) 5.28 (16:50) 0.8 0 0 0.8 0
19-05-2018 23.6 (14:50) 8.8 (00:00) 16.2 9.17 (19:50) 6.11 (20:40) 9.2 0 0 8.6 0.6
18-05-2018 23.4 (17:10) 10.2 (00:00) 16.8 11.94 (17:50) 6.94 (17:50) 3.8 0 1 0.4 2.4
17-05-2018 24.6 (17:10) 10.5 (00:00) 17.6 10.28 (22:40) 5.56 (22:40) 0 0 0 0 0
16-05-2018 24.6 (19:20) 7.6 (00:00) 16.1 7.78 (18:20) 4.17 (01:40) 0 0 0 0 0
15-05-2018 22.8 (17:00) 8.3 (00:00) 15.5 11.94 (08:20) 6.39 (09:00) 0 0 0 0 0
14-05-2018 17.5 (16:20) 8.3 (00:00) 12.9 10.83 (12:10) 5.83 (12:10) 0 0 0 0 0
13-05-2018 16.4 (17:20) 3.7 (00:00) 10 12.5 (02:40) 5 (08:10) 0 0 0 0 0
12-05-2018 17.6 (15:20) 8.7 (00:00) 13.2 12.78 (10:50) 7.5 (19:00) 0 0 0 0 0
11-05-2018 24.9 (17:00) 8.9 (06:30) 16.9 8.33 (01:20) 5 (01:20) 0 0 0 0 0
10-05-2018 24.8 (17:50) 11.9 (00:00) 18.3 14.17 (02:10) 6.94 (01:30) 0 0 0 0 0
09-05-2018 25.2 (15:50) 11.2 (00:00) 18.2 9.72 (22:30) 5.56 (22:50) 0 0 0 0 0
08-05-2018 25.4 (13:30) 13.4 (00:00) 19.4 8.61 (01:30) 4.44 (01:30) 0.4 0 0 0.2 0.2
07-05-2018 21.9 (18:10) 9.6 (00:00) 15.8 7.5 (18:30) 4.17 (18:30) 1 0 0 0.8 0.2
06-05-2018 24.1 (19:10) 10.3 (00:00) 17.2 8.33 (14:10) 3.89 (14:10) 0 0 0 0 0
05-05-2018 24.1 (18:10) 6.7 (00:00) 15.4 8.89 (01:20) 6.11 (01:00) 0 0 0 0 0
04-05-2018 19.2 (19:00) 3.3 (00:00) 11.3 13.61 (06:40) 7.5 (04:10) 0 0 0 0 0
03-05-2018 15.5 (16:40) 7.3 (00:00) 11.4 12.5 (17:50) 5.56 (15:40) 0 0 0 0 0
02-05-2018 17.2 (17:50) 4.1 (00:00) 10.7 8.61 (16:20) 4.17 (04:10) 0 0 0 0 0
01-05-2018 14.4 (19:10) 3 (06:50) 8.7 9.17 (14:30) 5 (14:10) 0 0 0 0 0
30-04-2018 12 (13:40) 0.1 (00:00) 6.1 9.17 (23:00) 4.72 (23:00) 1.2 0.2 0 0.8 0.2
29-04-2018 13 (14:00) 2.8 (00:00) 7.9 8.89 (16:40) 4.17 (23:10) 11.2 1 5.4 3.2 1.6
28-04-2018 16.3 (14:50) 7.1 (00:00) 11.7 10.56 (19:00) 5.28 (14:20) 0 0 0 0 0
27-04-2018 22.3 (14:50) 12.1 (00:00) 17.2 11.39 (08:40) 6.39 (08:40) 0 0 0 0 0
26-04-2018 25.3 (14:50) 8.9 (00:00) 17.1 7.22 (16:10) 3.89 (16:10) 0 0 0 0 0
25-04-2018 27.4 (15:50) 10.2 (00:00) 18.8 11.39 (16:10) 5.56 (16:10) 0 0 0 0 0

Gráficas

Temp. máximas Temp. mínimas Temp. medias Precipitaciones Rachas de viento máximas Velocidades máximas media en intervalos de 10 minutos

Datos horarios

Fecha y hora oficial Temperatura (ºC) Velocidad del viento (km/h) Dirección del viento Racha (km/h) Dirección de racha Precipitación (mm) Presión (hPa) Tendencia (hPa) Humedad (%)
2018-05-24 23:00:00 13.2 6 Norte 10 Norte 0 -- -- 94
2018-05-24 22:00:00 13.8 5 Noroeste 17 Noroeste 0 -- -- 89
2018-05-24 21:00:00 14.1 10 Noroeste 17 Oeste 0.4 -- -- 89
2018-05-24 20:00:00 13.9 12 Este 53 Sur 7.2 -- -- 91
2018-05-24 19:00:00 18.4 12 Sur 36 Sur 1 -- -- 69
2018-05-24 18:00:00 23.3 14 Este 38 Este 0 -- -- 41
2018-05-24 17:00:00 23.7 12 Nordeste 30 Sudeste 0 -- -- 40
2018-05-24 16:00:00 22.2 13 Este 30 Este 0 -- -- 41
2018-05-24 15:00:00 23.2 13 Este 33 Este 0 -- -- 37
2018-05-24 14:00:00 22.4 15 Este 30 Este 0 -- -- 37
2018-05-24 13:00:00 19.1 11 Este 19 Nordeste 0 -- -- 52
2018-05-24 12:00:00 18.4 4 Sur 22 Sudeste 0 -- -- 55
2018-05-24 11:00:00 20 9 Sudeste 19 Sudeste 0 -- -- 55
2018-05-24 10:00:00 19.9 7 Este 13 Este 0 -- -- 57
2018-05-24 09:00:00 16.3 2 Norte 7 Nordeste 0 -- -- 77
2018-05-24 08:00:00 13.5 3 Norte 9 Noroeste 0 -- -- 85
2018-05-24 07:00:00 13.2 5 Oeste 10 Oeste 0 -- -- 84
2018-05-24 06:00:00 13.6 5 Oeste 16 Norte 0 -- -- 87
2018-05-24 05:00:00 13.3 3 Noroeste 19 Noroeste 0.2 -- -- 88
2018-05-24 04:00:00 14.7 3 Sur 6 Oeste 0 -- -- 75
2018-05-24 03:00:00 15.1 4 Noroeste 6 Noroeste 0 -- -- 70
2018-05-24 02:00:00 15.1 0 Calma 7 Oeste 0 -- -- 68
2018-05-24 01:00:00 15.1 3 Norte 13 Noroeste 0 -- -- 65
2018-05-24 00:00:00 15.1 5 Noroeste 11 Noroeste 0 -- -- 64
2018-05-23 23:00:00 15.6 4 Noroeste 13 Noroeste 0 -- -- 63
2018-05-23 22:00:00 17 7 Noroeste 13 Noroeste 0 -- -- 55
2018-05-23 21:00:00 18.6 5 Sudoeste 16 Sudeste 0 -- -- 55
2018-05-23 20:00:00 19.7 6 Noroeste 35 Sur 0 -- -- 51
2018-05-23 19:00:00 23.4 7 Sudoeste 21 Sur 0 -- -- 43
2018-05-23 18:00:00 25 13 Sudeste 26 Sudeste 0 -- -- 40
2018-05-23 17:00:00 25.2 9 Sur 31 Sur 0 -- -- 38
2018-05-23 16:00:00 25.5 9 Sur 23 Sur 0 -- -- 38
2018-05-23 15:00:00 25.1 9 Sudeste 22 Sudeste 0 -- -- 39
2018-05-23 14:00:00 24.8 9 Sur 21 Sudoeste 0 -- -- 46
2018-05-23 13:00:00 23.2 10 Sudeste 19 Sudeste 0 -- -- 50
2018-05-23 12:00:00 22.9 4 Sur 11 Sudoeste 0 -- -- 52
2018-05-23 11:00:00 21.7 4 Sudeste 9 Sudeste 0 -- -- 57
2018-05-23 10:00:00 21.1 3 Sur 8 Sudoeste 0 -- -- 56
2018-05-23 09:00:00 18.6 3 Nordeste 5 Este 0 -- -- 66
2018-05-23 08:00:00 12.8 0 Calma 5 Oeste 0 -- -- 83
2018-05-23 07:00:00 11 2 Oeste 4 Noroeste 0 -- -- 90
2018-05-23 06:00:00 11.5 0 Calma 5 Oeste 0 -- -- 86
2018-05-23 05:00:00 12.3 0 Calma 6 Noroeste 0 -- -- 86
2018-05-23 04:00:00 11.6 2 Nordeste 6 Oeste 0 -- -- 86
2018-05-23 03:00:00 13 3 Oeste 9 Oeste 0 -- -- 82
2018-05-23 02:00:00 13.6 5 Noroeste 8 Oeste 0 -- -- 79
2018-05-23 01:00:00 13.8 4 Noroeste 10 Noroeste 0 -- -- 80
2018-05-23 00:00:00 14.8 4 Noroeste 8 Noroeste 0 -- -- 75
2018-05-22 23:00:00 16.1 4 Oeste 8 Oeste 0 -- -- 72
2018-05-22 22:00:00 16.8 0 Calma 6 Norte 0 -- -- 70
2018-05-22 21:00:00 18.6 2 Nordeste 8 Este 0 -- -- 65
2018-05-22 20:00:00 20.9 0 Calma 6 Nordeste 0 -- -- 54
2018-05-22 19:00:00 21.3 4 Este 11 Este 0 -- -- 49
2018-05-22 18:00:00 20.4 8 Este 19 Norte 0 -- -- 49
2018-05-22 17:00:00 19.4 10 Nordeste 26 Norte 0 -- -- 53
2018-05-22 16:00:00 20.5 16 Nordeste 36 Este 0 -- -- 54
2018-05-22 15:00:00 22.3 9 Sudeste 22 Sur 0 -- -- 45
2018-05-22 14:00:00 23 9 Sudeste 21 Sudeste 0 -- -- 47
2018-05-22 13:00:00 23.3 8 Sudoeste 23 Sudeste 0 -- -- 49
2018-05-22 12:00:00 21.6 10 Sudeste 16 Sudeste 0 -- -- 55
2018-05-22 11:00:00 20.3 7 Sur 14 Sudeste 0 -- -- 58
2018-05-22 10:00:00 18.3 5 Este 11 Sudeste 0 -- -- 63
2018-05-22 09:00:00 17.1 3 Este 5 Este 0 -- -- 65
2018-05-22 08:00:00 13.7 2 Nordeste 18 Oeste 0 -- -- 76
2018-05-22 07:00:00 10 4 Oeste 12 Noroeste 0 -- -- 90
2018-05-22 06:00:00 9.9 3 Oeste 5 Noroeste 0 -- -- 91
2018-05-22 05:00:00 11 4 Oeste 7 Oeste 0 -- -- 87
2018-05-22 04:00:00 12 7 Noroeste 15 Noroeste 0 -- -- 82
2018-05-22 03:00:00 12.2 0 Calma 10 Norte 0 -- -- 82
2018-05-22 02:00:00 12.8 7 Noroeste 14 Noroeste 0 -- -- 78
2018-05-22 01:00:00 13.1 8 Noroeste 10 Noroeste 0 -- -- 78
2018-05-22 00:00:00 13.4 3 Nordeste 8 Noroeste 0 -- -- 80
2018-05-21 23:00:00 14.1 3 Norte 19 Oeste 0 -- -- 75
2018-05-21 22:00:00 15.5 12 Oeste 19 Noroeste 0 -- -- 63
2018-05-21 21:00:00 17 7 Noroeste 21 Oeste 0 -- -- 61
2018-05-21 20:00:00 18 9 Noroeste 16 Oeste 0 -- -- 63
2018-05-21 19:00:00 21.5 3 Sudeste 14 Norte 0 -- -- 46
2018-05-21 18:00:00 16.2 8 Noroeste 27 Noroeste 0.8 -- -- 85
2018-05-21 17:00:00 20 5 Sur 23 Sudeste 0 -- -- 50
2018-05-21 16:00:00 22.3 11 Sudeste 30 Sur 0 -- -- 42
2018-05-21 15:00:00 21.6 12 Sur 30 Sudeste 0 -- -- 46
2018-05-21 14:00:00 20.4 15 Sur 30 Sudeste 0 -- -- 51
2018-05-21 13:00:00 19.5 10 Sur 19 Sudeste 0 -- -- 55
2018-05-21 12:00:00 19.5 10 Sur 19 Sur 0 -- -- 61
2018-05-21 11:00:00 18.3 4 Sur 9 Sudoeste 0 -- -- 64
2018-05-21 10:00:00 15.9 2 Sur 5 Sudoeste 0 -- -- 70
2018-05-21 09:00:00 12.2 0 Calma 4 Noroeste 0 -- -- 88
2018-05-21 08:00:00 10.7 0 Calma 3 Norte 0 -- -- 90
2018-05-21 07:00:00 9.8 0 Calma 3 Sudoeste 0 -- -- 90
2018-05-21 06:00:00 10.8 3 Oeste 6 Noroeste 0.2 -- -- 88
2018-05-21 05:00:00 10.3 2 Nordeste 10 Oeste 0 -- -- 86
2018-05-21 04:00:00 9.6 0 Calma 9 Noroeste 0 -- -- 87
2018-05-21 03:00:00 10.4 6 Noroeste 11 Oeste 0 -- -- 84
2018-05-21 02:00:00 12.1 3 Sudoeste 6 Oeste 0 -- -- 76
2018-05-21 01:00:00 12.4 2 Noroeste 6 Noroeste 0 -- -- 76
2018-05-21 00:00:00 12.8 3 Noroeste 6 Oeste 0 -- -- 73
2018-05-20 23:00:00 13 5 Noroeste 11 Noroeste 0 -- -- 74
2018-05-20 22:00:00 13.8 7 Noroeste 15 Noroeste 0 -- -- 71
2018-05-20 21:00:00 15 7 Noroeste 15 Noroeste 0 -- -- 67
2018-05-20 20:00:00 16.1 4 Sudoeste 22 Norte 0 -- -- 67
2018-05-20 19:00:00 16.3 11 Norte 25 Noroeste 0 -- -- 61
2018-05-20 18:00:00 15.7 13 Noroeste 32 Noroeste 0 -- -- 65
2018-05-20 17:00:00 13.3 19 Noroeste 31 Noroeste 0.8 -- -- 76
2018-05-20 16:00:00 19.8 5 Noroeste 18 Sudeste 0 -- -- 47
2018-05-20 15:00:00 20.7 9 Sudeste 25 Sudeste 0 -- -- 49
2018-05-20 14:00:00 19.8 12 Sur 21 Sur 0 -- -- 52
2018-05-20 13:00:00 20.8 6 Sur 19 Sur 0 -- -- 51
2018-05-20 12:00:00 18.6 5 Oeste 14 Sur 0 -- -- 57
2018-05-20 11:00:00 18.9 5 Sur 13 Sur 0 -- -- 59
2018-05-20 10:00:00 17.3 5 Sudeste 10 Sudeste 0 -- -- 64
2018-05-20 09:00:00 15.6 3 Este 6 Noroeste 0 -- -- 64
2018-05-20 08:00:00 13.1 4 Noroeste 8 Norte 0 -- -- 78
2018-05-20 07:00:00 10.3 3 Norte 8 Noroeste 0 -- -- 84
2018-05-20 06:00:00 11.5 0 Calma 12 Este 0 -- -- 79
2018-05-20 05:00:00 10 3 Noroeste 6 Este 0 -- -- 91
2018-05-20 04:00:00 11.6 2 Oeste 14 Noroeste 0 -- -- 80
2018-05-20 03:00:00 9.9 6 Norte 15 Noroeste 0 -- -- 90
2018-05-20 02:00:00 12 5 Nordeste 20 Oeste 0 -- -- 81
2018-05-20 01:00:00 12.3 8 Noroeste 15 Oeste 0 -- -- 81
2018-05-20 00:00:00 13.8 12 Oeste 19 Oeste 0 -- -- 75
2018-05-19 23:00:00 13.7 8 Oeste 30 Oeste 0 -- -- 76
2018-05-19 22:00:00 14.2 21 Noroeste 28 Noroeste 0 -- -- 73
2018-05-19 21:00:00 14.3 13 Noroeste 31 Oeste 0 -- -- 77
2018-05-19 20:00:00 14.4 16 Oeste 33 Noroeste 0.6 -- -- 74
2018-05-19 19:00:00 15.1 10 Noroeste 23 Noroeste 0 -- -- 70
2018-05-19 18:00:00 14.6 17 Noroeste 32 Oeste 0 -- -- 77
2018-05-19 17:00:00 12.5 14 Oeste 23 Noroeste 3.4 -- -- 87
2018-05-19 16:00:00 12 13 Norte 30 Noroeste 5.2 -- -- 82
2018-05-19 15:00:00 21.3 7 Sudeste 14 Oeste 0 -- -- 48
2018-05-19 14:00:00 16.7 9 Noroeste 27 Noroeste 0 -- -- 60
2018-05-19 13:00:00 22.6 9 Sur 21 Sudeste 0 -- -- 49
2018-05-19 12:00:00 21.4 6 Sudeste 13 Sudeste 0 -- -- 52
2018-05-19 11:00:00 20.4 5 Sur 13 Sur 0 -- -- 55
2018-05-19 10:00:00 20 5 Sudoeste 9 Sudoeste 0 -- -- 56
2018-05-19 09:00:00 17 3 Sudeste 5 Sur 0 -- -- 66
2018-05-19 08:00:00 11.8 0 Calma 6 Nordeste 0 -- -- 87
2018-05-19 07:00:00 10.4 3 Nordeste 7 Noroeste 0 -- -- 90
2018-05-19 06:00:00 11.1 3 Oeste 6 Noroeste 0 -- -- 86
2018-05-19 05:00:00 10 2 Norte 6 Sudoeste 0 -- -- 91
2018-05-19 04:00:00 9 2 Nordeste 8 Noroeste 0 -- -- 93
2018-05-19 03:00:00 10.4 5 Oeste 7 Noroeste 0 -- -- 87
2018-05-19 02:00:00 9.8 3 Noroeste 10 Sudoeste 0 -- -- 87
2018-05-19 01:00:00 10.5 2 Sudoeste 10 Noroeste 0 -- -- 83
2018-05-19 00:00:00 11.3 8 Noroeste 13 Noroeste 0 -- -- 80
2018-05-18 23:00:00 11.3 7 Noroeste 11 Oeste 0 -- -- 82
2018-05-18 22:00:00 12 2 Nordeste 13 Norte 0 -- -- 82
2018-05-18 21:00:00 13.3 5 Oeste 11 Oeste 0 -- -- 77
2018-05-18 20:00:00 15 3 Nordeste 15 Noroeste 0 -- -- 84
2018-05-18 19:00:00 12.5 13 Noroeste 33 Norte 2.4 -- -- 85
2018-05-18 18:00:00 13.4 16 Nordeste 43 Nordeste 0.4 -- -- 78
2018-05-18 17:00:00 22.3 10 Sudeste 23 Sudeste 0 -- -- 44
2018-05-18 16:00:00 21.1 5 Sur 22 Sur 0 -- -- 48
2018-05-18 15:00:00 20.6 5 Sudeste 18 Oeste 0 -- -- 46
2018-05-18 14:00:00 19.5 4 Sudoeste 15 Oeste 0 -- -- 55
2018-05-18 13:00:00 18.7 5 Sur 12 Sur 0 -- -- 61
2018-05-18 12:00:00 13.8 4 Sudoeste 22 Noroeste 0.6 -- -- 85
2018-05-18 11:00:00 12.7 4 Sudoeste 12 Noroeste 0.4 -- -- 85
2018-05-18 10:00:00 12.8 6 Sudoeste 10 Noroeste 0 -- -- 74
2018-05-18 09:00:00 12.4 6 Norte 14 Noroeste 0 -- -- 70
2018-05-18 08:00:00 12.9 10 Noroeste 24 Oeste 0 -- -- 66
2018-05-18 07:00:00 12.6 12 Oeste 32 Noroeste 0 -- -- 62
2018-05-18 06:00:00 12.1 18 Oeste 36 Oeste 0 -- -- 73
2018-05-18 05:00:00 13 15 Oeste 27 Oeste 0 -- -- 78
2018-05-18 04:00:00 13.5 5 Noroeste 13 Oeste 0 -- -- 71
2018-05-18 03:00:00 13.9 4 Sudeste 12 Noroeste 0 -- -- 69
2018-05-18 02:00:00 14 8 Noroeste 18 Noroeste 0 -- -- 69
2018-05-18 01:00:00 13.9 5 Norte 15 Norte 0 -- -- 68
2018-05-18 00:00:00 15.2 10 Norte 31 Nordeste 0 -- -- 60
2018-05-17 23:00:00 15.9 11 Noroeste 37 Noroeste 0 -- -- 57
2018-05-17 22:00:00 16.6 4 Noroeste 25 Norte 0 -- -- 51
2018-05-17 21:00:00 16.9 7 Norte 18 Oeste 0 -- -- 55
2018-05-17 20:00:00 17.9 12 Noroeste 31 Noroeste 0 -- -- 48
2018-05-17 19:00:00 18.7 14 Noroeste 33 Oeste 0 -- -- 47
2018-05-17 18:00:00 20.2 13 Oeste 27 Sudoeste 0 -- -- 41
2018-05-17 17:00:00 24.4 8 Sudoeste 25 Sudeste 0 -- -- 30
2018-05-17 16:00:00 23.9 10 Sudeste 25 Sudeste 0 -- -- 30
2018-05-17 15:00:00 23.9 7 Sur 25 Sudeste 0 -- -- 30
2018-05-17 14:00:00 23 10 Sur 21 Sudoeste 0 -- -- 30
2018-05-17 13:00:00 22.1 6 Sur 23 Sudeste 0 -- -- 33
2018-05-17 12:00:00 21.2 9 Sudeste 18 Sudeste 0 -- -- 36
2018-05-17 11:00:00 20.4 9 Sudeste 18 Sudeste 0 -- -- 38
2018-05-17 10:00:00 19.6 6 Este 14 Este 0 -- -- 38
2018-05-17 09:00:00 18.8 3 Nordeste 7 Nordeste 0 -- -- 42
2018-05-17 08:00:00 15 3 Norte 5 Noroeste 0 -- -- 58
2018-05-17 07:00:00 10.7 0 Calma 6 Norte 0 -- -- 63
2018-05-17 06:00:00 11.3 4 Noroeste 6 Noroeste 0 -- -- 60
2018-05-17 05:00:00 10.5 4 Noroeste 10 Norte 0 -- -- 63
2018-05-17 04:00:00 12.6 6 Noroeste 12 Norte 0 -- -- 55
2018-05-17 03:00:00 13.5 3 Norte 9 Nordeste 0 -- -- 54
2018-05-17 02:00:00 13.4 0 Calma 8 Oeste 0 -- -- 56
2018-05-17 01:00:00 13.9 4 Noroeste 17 Noroeste 0 -- -- 52
2018-05-17 00:00:00 12.8 4 Noroeste 10 Noroeste 0 -- -- 56
2018-05-16 23:00:00 14 4 Noroeste 8 Oeste 0 -- -- 52
2018-05-16 22:00:00 16.7 6 Noroeste 8 Noroeste 0 -- -- 45
2018-05-16 21:00:00 18.6 2 Sudeste 10 Este 0 -- -- 41
2018-05-16 20:00:00 23.6 7 Sur 16 Este 0 -- -- 32
2018-05-16 19:00:00 24.2 7 Sudeste 28 Este 0 -- -- 30
2018-05-16 18:00:00 22.7 9 Este 22 Norte 0 -- -- 32
2018-05-16 17:00:00 23.5 11 Sudeste 22 Este 0 -- -- 32
2018-05-16 16:00:00 23.4 12 Este 24 Sudeste 0 -- -- 32
2018-05-16 15:00:00 23.1 10 Sudeste 27 Sudeste 0 -- -- 36
2018-05-16 14:00:00 21.7 9 Este 23 Este 0 -- -- 39
2018-05-16 13:00:00 20.9 9 Este 22 Sudeste 0 -- -- 42
2018-05-16 12:00:00 20.3 8 Este 19 Este 0 -- -- 44
2018-05-16 11:00:00 19.7 7 Sudeste 14 Este 0 -- -- 44
2018-05-16 10:00:00 17.8 5 Sur 10 Sudeste 0 -- -- 53
2018-05-16 09:00:00 17 3 Este 7 Oeste 0 -- -- 52
2018-05-16 08:00:00 12 0 Calma 8 Noroeste 0 -- -- 67
2018-05-16 07:00:00 8.1 3 Oeste 10 Noroeste 0 -- -- 80
2018-05-16 06:00:00 9.6 6 Noroeste 12 Noroeste 0 -- -- 73
2018-05-16 05:00:00 9 6 Norte 9 Noroeste 0 -- -- 76
2018-05-16 04:00:00 10.9 2 Nordeste 10 Oeste 0 -- -- 68
2018-05-16 03:00:00 12.2 3 Sur 17 Noroeste 0 -- -- 63
2018-05-16 02:00:00 13.9 12 Noroeste 27 Oeste 0 -- -- 57
2018-05-16 01:00:00 13.8 7 Noroeste 14 Oeste 0 -- -- 58
2018-05-16 00:00:00 14.9 8 Noroeste 32 Norte 0 -- -- 54
2018-05-15 23:00:00 16 15 Norte 37 Noroeste 0 -- -- 51
2018-05-15 22:00:00 17 12 Norte 24 Norte 0 -- -- 46
2018-05-15 21:00:00 18.2 10 Norte 27 Noroeste 0 -- -- 40
2018-05-15 20:00:00 20.9 12 Norte 25 Norte 0 -- -- 36
2018-05-15 19:00:00 22.2 10 Nordeste 24 Noroeste 0 -- -- 35
2018-05-15 18:00:00 22.1 12 Norte 30 Noroeste 0 -- -- 35
2018-05-15 17:00:00 22.8 8 Norte 31 Noroeste 0 -- -- 34
2018-05-15 16:00:00 21.3 12 Norte 28 Norte 0 -- -- 35
2018-05-15 15:00:00 20.7 13 Norte 32 Oeste 0 -- -- 34
2018-05-15 14:00:00 19.3 13 Oeste 34 Noroeste 0 -- -- 36
2018-05-15 13:00:00 17.6 16 Noroeste 32 Noroeste 0 -- -- 36
2018-05-15 12:00:00 16.2 15 Oeste 35 Oeste 0 -- -- 37
2018-05-15 11:00:00 13.2 20 Noroeste 42 Noroeste 0 -- -- 40
2018-05-15 10:00:00 12.2 13 Noroeste 39 Noroeste 0 -- -- 43
2018-05-15 09:00:00 8.8 23 Noroeste 43 Noroeste 0 -- -- 48
2018-05-15 08:00:00 8.8 22 Noroeste 37 Oeste 0 -- -- 43
2018-05-15 07:00:00 8.4 5 Noroeste 33 Noroeste 0 -- -- 44
2018-05-15 06:00:00 8.3 15 Noroeste 35 Noroeste 0 -- -- 49
2018-05-15 05:00:00 9.3 17 Noroeste 32 Noroeste 0 -- -- 35
2018-05-15 04:00:00 9.9 12 Noroeste 22 Oeste 0 -- -- 31
2018-05-15 03:00:00 11.2 13 Noroeste 33 Noroeste 0 -- -- 25
2018-05-15 02:00:00 10.5 6 Norte 32 Norte 0 -- -- 39
2018-05-15 01:00:00 11 11 Norte 29 Norte 0 -- -- 53
2018-05-15 00:00:00 11.5 8 Norte 32 Noroeste 0 -- -- 45
2018-05-14 23:00:00 12 13 Norte 26 Noroeste 0 -- -- 43
2018-05-14 22:00:00 12.6 8 Norte 30 Norte 0 -- -- 46
2018-05-14 21:00:00 13.9 11 Norte 32 Norte 0 -- -- 45
2018-05-14 20:00:00 16.3 10 Norte 31 Nordeste 0 -- -- 41
2018-05-14 19:00:00 16.9 12 Norte 34 Nordeste 0 -- -- 40
2018-05-14 18:00:00 16.7 14 Nordeste 37 Norte 0 -- -- 41
2018-05-14 17:00:00 15.6 14 Norte 39 Nordeste 0 -- -- 47
2018-05-14 16:00:00 16.4 12 Norte 32 Nordeste 0 -- -- 46
2018-05-14 15:00:00 15.8 15 Nordeste 31 Nordeste 0 -- -- 52
2018-05-14 14:00:00 14.7 13 Norte 32 Norte 0 -- -- 59
2018-05-14 13:00:00 15.5 13 Norte 39 Noroeste 0 -- -- 58
2018-05-14 12:00:00 14.9 14 Norte 33 Noroeste 0 -- -- 58
2018-05-14 11:00:00 15.1 7 Noroeste 31 Norte 0 -- -- 57
2018-05-14 10:00:00 12.3 15 Noroeste 35 Noroeste 0 -- -- 62
2018-05-14 09:00:00 10.6 5 Noroeste 27 Noroeste 0 -- -- 67
2018-05-14 08:00:00 8.8 12 Noroeste 30 Noroeste 0 -- -- 71
2018-05-14 07:00:00 8.8 11 Norte 34 Norte 0 -- -- 68
2018-05-14 06:00:00 8.7 6 Norte 30 Norte 0 -- -- 68
2018-05-14 05:00:00 8.6 9 Noroeste 30 Noroeste 0 -- -- 68
2018-05-14 04:00:00 8.3 8 Noroeste 23 Noroeste 0 -- -- 68
2018-05-14 03:00:00 9.2 10 Noroeste 24 Oeste 0 -- -- 65
2018-05-14 02:00:00 9.8 5 Noroeste 30 Norte 0 -- -- 62
2018-05-14 01:00:00 10.7 11 Noroeste 25 Norte 0 -- -- 59
2018-05-11 20:00:00 21.2 4 Sudoeste 15 Oeste 0 -- -- 45
2018-05-11 19:00:00 22.3 5 Sudoeste 21 Sur 0 -- -- 45
2018-05-11 18:00:00 22.5 7 Sur 24 Sur 0 -- -- 43
2018-05-11 17:00:00 24.9 8 Sur 30 Sudeste 0 -- -- 39
2018-05-11 16:00:00 23.7 14 Sudeste 27 Sudeste 0 -- -- 41
2018-05-11 15:00:00 24.1 10 Sur 29 Sur 0 -- -- 39
2018-05-11 14:00:00 22.1 12 Sur 23 Sudeste 0 -- -- 47
2018-05-11 13:00:00 21.4 9 Sudeste 21 Sur 0 -- -- 53
2018-05-11 12:00:00 20.4 7 Sur 15 Sudeste 0 -- -- 59
2018-05-11 11:00:00 19.4 7 Sur 18 Sur 0 -- -- 55
2018-05-11 10:00:00 19 3 Sudoeste 8 Sudoeste 0 -- -- 53
2018-05-11 09:00:00 16 0 Calma 4 Norte 0 -- -- 61
2018-05-11 08:00:00 12.4 0 Calma 5 Oeste 0 -- -- 71
2018-05-11 07:00:00 9.7 0 Calma 6 Noroeste 0 -- -- 78
2018-05-11 06:00:00 9.5 4 Noroeste 7 Noroeste 0 -- -- 79
2018-05-11 05:00:00 11 2 Noroeste 6 Noroeste 0 -- -- 69
2018-05-11 04:00:00 13 6 Oeste 17 Noroeste 0 -- -- 61
2018-05-11 03:00:00 14.6 16 Noroeste 26 Oeste 0 -- -- 55
2018-05-11 02:00:00 13 4 Norte 30 Noroeste 0 -- -- 60
2018-05-11 01:00:00 15.6 13 Noroeste 21 Noroeste 0 -- -- 52
2018-05-11 00:00:00 15.8 14 Noroeste 20 Oeste 0 -- -- 51
2018-05-10 23:00:00 16.7 10 Noroeste 23 Noroeste 0 -- -- 49
2018-05-10 22:00:00 17.3 6 Noroeste 15 Noroeste 0 -- -- 51
2018-05-10 21:00:00 17.8 6 Noroeste 10 Norte 0 -- -- 54
2018-05-10 20:00:00 19.1 4 Noroeste 7 Oeste 0 -- -- 58
2018-05-10 19:00:00 20.7 3 Oeste 9 Sur 0 -- -- 53
2018-05-10 18:00:00 23.8 5 Sudoeste 14 Sudoeste 0 -- -- 40
2018-05-10 17:00:00 24.3 7 Sur 17 Sur 0 -- -- 38
2018-05-10 16:00:00 21.2 4 Oeste 13 Sur 0 -- -- 48
2018-05-10 15:00:00 22.8 8 Sudoeste 22 Oeste 0 -- -- 42
2018-05-10 14:00:00 20.9 12 Oeste 23 Oeste 0 -- -- 50
2018-05-10 13:00:00 21.3 8 Norte 27 Oeste 0 -- -- 48
2018-05-10 12:00:00 19.3 9 Noroeste 24 Oeste 0 -- -- 55
2018-05-10 11:00:00 17.2 11 Noroeste 33 Noroeste 0 -- -- 59
2018-05-10 10:00:00 15.2 14 Noroeste 36 Oeste 0 -- -- 65
2018-05-10 09:00:00 13.4 17 Noroeste 33 Noroeste 0 -- -- 73
2018-05-10 08:00:00 12.7 14 Noroeste 34 Este 0 -- -- 77
2018-05-10 07:00:00 12.1 7 Sur 37 Noroeste 0 -- -- 76
2018-05-10 06:00:00 13.2 20 Noroeste 44 Oeste 0 -- -- 68
2018-05-10 05:00:00 14.3 22 Noroeste 42 Noroeste 0 -- -- 63
2018-05-10 04:00:00 15.1 10 Norte 39 Noroeste 0 -- -- 61
2018-05-10 03:00:00 15.5 22 Noroeste 51 Noroeste 0 -- -- 56
2018-05-10 02:00:00 16.2 19 Noroeste 43 Noroeste 0 -- -- 64
2018-05-10 01:00:00 17.1 21 Noroeste 39 Noroeste 0 -- -- 66
2018-05-10 00:00:00 17.9 15 Noroeste 33 Noroeste 0 -- -- 58
2018-05-09 23:00:00 18.1 16 Noroeste 35 Norte 0 -- -- 60
2018-05-09 22:00:00 18.9 15 Noroeste 27 Oeste 0 -- -- 50
2018-05-09 21:00:00 19.8 9 Noroeste 26 Norte 0 -- -- 47
2018-05-09 20:00:00 20.7 13 Noroeste 30 Norte 0 -- -- 46
2018-05-09 19:00:00 23.4 10 Norte 30 Noroeste 0 -- -- 40
2018-05-09 18:00:00 23.4 11 Noroeste 30 Norte 0 -- -- 35
2018-05-09 17:00:00 24.1 11 Norte 31 Noroeste 0 -- -- 36
2018-05-09 16:00:00 25 10 Norte 31 Norte 0 -- -- 39
2018-05-09 15:00:00 24.1 7 Norte 20 Norte 0 -- -- 45
2018-05-09 14:00:00 22.9 5 Sudeste 21 Noroeste 0 -- -- 47
2018-05-09 13:00:00 23.6 7 Sudoeste 19 Oeste 0 -- -- 46
2018-05-09 12:00:00 24 4 Noroeste 17 Sudoeste 0 -- -- 45
2018-05-09 11:00:00 22.6 6 Sudoeste 14 Sudoeste 0 -- -- 52
2018-05-09 10:00:00 20.6 3 Sur 8 Sudoeste 0 -- -- 57
2018-05-09 09:00:00 19.4 3 Nordeste 14 Noroeste 0 -- -- 61
2018-05-09 08:00:00 15.3 2 Noroeste 9 Oeste 0 -- -- 72
2018-05-09 07:00:00 11.5 0 Calma 6 Oeste 0 -- -- 83
2018-05-09 06:00:00 11.9 3 Sudoeste 9 Oeste 0 -- -- 82
2018-05-09 05:00:00 12.9 5 Sudeste 13 Noroeste 0 -- -- 77
2018-05-09 04:00:00 14.4 12 Oeste 20 Oeste 0 -- -- 72
2018-05-09 03:00:00 13.3 3 Noroeste 27 Noroeste 0 -- -- 76
2018-05-09 02:00:00 16.1 15 Oeste 25 Oeste 0 -- -- 64
2018-05-09 01:00:00 16.8 6 Norte 32 Norte 0 -- -- 61
2018-05-09 00:00:00 16.3 12 Norte 24 Norte 0.2 -- -- 65
2018-05-08 23:00:00 17 9 Noroeste 16 Oeste 0 -- -- 69
2018-05-08 22:00:00 16.3 3 Norte 9 Nordeste 0 -- -- 76
2018-05-08 21:00:00 17.6 0 Calma 6 Oeste 0 -- -- 73
2018-05-08 20:00:00 22 3 Sur 15 Norte 0 -- -- 56
2018-05-08 19:00:00 21.5 5 Sudoeste 9 Oeste 0 -- -- 63
2018-05-08 18:00:00 19.5 5 Oeste 16 Sur 0.2 -- -- 78
2018-05-08 17:00:00 22.7 3 Este 24 Sudeste 0 -- -- 54
2018-05-08 16:00:00 22.6 14 Sudeste 22 Sudeste 0 -- -- 54
2018-05-08 15:00:00 23.5 7 Sur 30 Este 0 -- -- 48
2018-05-08 14:00:00 22.4 4 Este 17 Nordeste 0 -- -- 47
2018-05-08 13:00:00 23.3 6 Nordeste 19 Norte 0 -- -- 47
2018-05-08 12:00:00 22.4 9 Oeste 23 Oeste 0 -- -- 49
2018-05-08 11:00:00 21.2 9 Oeste 26 Noroeste 0 -- -- 55
2018-05-08 10:00:00 18.4 6 Norte 21 Noroeste 0 -- -- 59
2018-05-08 09:00:00 18.9 6 Oeste 15 Oeste 0 -- -- 60
2018-05-08 08:00:00 16.5 4 Sudoeste 24 Noroeste 0 -- -- 66
2018-05-08 07:00:00 15.1 13 Noroeste 25 Oeste 0 -- -- 69
2018-05-08 06:00:00 14.2 3 Este 14 Noroeste 0 -- -- 73
2018-05-08 05:00:00 14.4 5 Noroeste 15 Sudoeste 0 -- -- 73
2018-05-08 04:00:00 13.7 3 Este 19 Este 0 -- -- 76
2018-05-08 03:00:00 14.6 4 Este 17 Este 0 -- -- 70
2018-05-08 02:00:00 15.8 8 Oeste 31 Oeste 0 -- -- 63
2018-05-08 01:00:00 15.5 15 Oeste 24 Oeste 0 -- -- 63
2018-05-08 00:00:00 15.5 7 Noroeste 17 Norte 0 -- -- 66
2018-05-07 23:00:00 15.5 6 Norte 21 Este 0 -- -- 69
2018-05-07 22:00:00 16.3 4 Norte 19 Norte 0 -- -- 64
2018-05-07 21:00:00 15.6 3 Norte 7 Oeste 0 -- -- 83
2018-05-07 20:00:00 16.9 0 Calma 9 Noroeste 0 -- -- 76
2018-05-07 19:00:00 16.6 0 Calma 27 Nordeste 0.2 -- -- 79
2018-05-07 18:00:00 21.1 3 Norte 21 Este 0.6 -- -- 63
2018-05-07 17:00:00 19.6 4 Sur 14 Sudeste 0.2 -- -- 62
2018-05-07 16:00:00 20.7 6 Este 17 Este 0 -- -- 49
2018-05-07 15:00:00 21.6 5 Sudeste 17 Sudeste 0 -- -- 49
2018-05-07 14:00:00 21.1 4 Este 11 Sudeste 0 -- -- 54
2018-05-07 13:00:00 18.9 4 Sur 12 Sur 0 -- -- 58
2018-05-07 12:00:00 18.4 4 Sur 9 Sudeste 0 -- -- 60
2018-05-07 11:00:00 15.5 0 Calma 5 Este 0 -- -- 71
2018-05-07 10:00:00 15.4 3 Nordeste 6 Oeste 0 -- -- 73
2018-05-07 09:00:00 14.6 3 Nordeste 7 Noroeste 0 -- -- 71
2018-05-07 08:00:00 12.5 3 Noroeste 10 Noroeste 0 -- -- 77
2018-05-07 07:00:00 10 2 Oeste 6 Oeste 0 -- -- 85
2018-05-07 06:00:00 10.1 4 Noroeste 9 Noroeste 0 -- -- 84
2018-05-07 05:00:00 10 3 Norte 8 Noroeste 0 -- -- 85
2018-05-07 04:00:00 11.5 3 Noroeste 9 Noroeste 0 -- -- 80
2018-05-07 03:00:00 13.1 5 Noroeste 8 Noroeste 0 -- -- 75
2018-05-07 02:00:00 13.6 2 Norte 8 Oeste 0 -- -- 73
2018-05-07 01:00:00 14.6 5 Oeste 10 Oeste 0 -- -- 65
2018-05-07 00:00:00 14.1 5 Norte 12 Nordeste 0 -- -- 65
2018-05-06 23:00:00 15.1 2 Noroeste 6 Oeste 0 -- -- 61
2018-05-06 22:00:00 16.8 5 Oeste 8 Oeste 0 -- -- 56
2018-05-06 21:00:00 17.5 2 Sur 12 Sudeste 0 -- -- 52
2018-05-06 20:00:00 21.3 4 Sudeste 13 Sudeste 0 -- -- 42
2018-05-06 19:00:00 22.8 5 Este 16 Sudeste 0 -- -- 42
2018-05-06 18:00:00 22.2 9 Este 27 Sudeste 0 -- -- 38
2018-05-06 17:00:00 22 10 Este 21 Este 0 -- -- 41
2018-05-06 16:00:00 20.7 10 Sudeste 23 Sudeste 0 -- -- 45
2018-05-06 15:00:00 20.9 5 Sudeste 30 Sur 0 -- -- 47
2018-05-06 14:00:00 20.5 8 Sudeste 22 Sudeste 0 -- -- 49
2018-05-06 13:00:00 19.7 8 Sudeste 24 Este 0 -- -- 50
2018-05-06 12:00:00 18.2 7 Este 20 Este 0 -- -- 57
2018-05-06 11:00:00 17.9 9 Este 19 Este 0 -- -- 56
2018-05-06 10:00:00 17.4 10 Este 20 Nordeste 0 -- -- 58
2018-05-06 09:00:00 14.1 5 Este 10 Este 0 -- -- 70
2018-05-06 08:00:00 10.9 0 Calma 5 Nordeste 0 -- -- 89
2018-05-06 07:00:00 10.6 2 Noroeste 4 Nordeste 0 -- -- 89
2018-05-06 06:00:00 10.5 3 Oeste 5 Noroeste 0 -- -- 90
2018-05-06 05:00:00 11.1 3 Noroeste 9 Oeste 0 -- -- 86
2018-05-06 04:00:00 11.9 4 Oeste 12 Sudeste -- -- -- 84
2018-05-06 03:00:00 13 7 Sudeste 14 Sudeste 0 -- -- 78
2018-05-06 02:00:00 12.9 3 Norte 14 Este 0 -- -- 78
2018-05-06 01:00:00 14.1 8 Nordeste 21 Nordeste 0 -- -- 71
2018-05-06 00:00:00 15.3 5 Sur 22 Norte 0 -- -- 54
2018-05-05 23:00:00 16.4 8 Norte 22 Norte 0 -- -- 50
2018-05-05 22:00:00 17.2 12 Noroeste 21 Noroeste 0 -- -- 50
2018-05-05 21:00:00 18.7 9 Norte 21 Noroeste 0 -- -- 47
2018-05-05 20:00:00 21.8 3 Norte 12 Nordeste 0 -- -- 43
2018-05-05 19:00:00 21.7 9 Este 17 Oeste 0 -- -- 42
2018-05-05 18:00:00 23.6 5 Noroeste 15 Este 0 -- -- 37
2018-05-05 17:00:00 21.3 8 Nordeste 17 Este 0 -- -- 41
2018-05-05 16:00:00 22.8 8 Nordeste 18 Noroeste 0 -- -- 36
2018-05-05 15:00:00 22.4 11 Noroeste 23 Nordeste 0 -- -- 35
2018-05-05 14:00:00 21.3 13 Noroeste 32 Noroeste 0 -- -- 41
2018-05-05 13:00:00 21.7 7 Norte 19 Noroeste 0 -- -- 37
2018-05-05 12:00:00 19.4 8 Sudeste 14 Sur 0 -- -- 49
2018-05-05 11:00:00 16.7 5 Sudeste 12 Sur 0 -- -- 54
2018-05-05 10:00:00 15.2 4 Sur 9 Sudeste 0 -- -- 59
2018-05-05 09:00:00 15.4 2 Sur 5 Nordeste 0 -- -- 57
2018-05-05 08:00:00 10.5 3 Sudoeste 9 Noroeste 0 -- -- 72
2018-05-05 07:00:00 7 4 Sudoeste 7 Sudoeste 0 -- -- 83
2018-05-05 06:00:00 8.9 8 Noroeste 15 Oeste 0 -- -- 73
2018-05-05 05:00:00 8 2 Noroeste 7 Oeste 0 -- -- 78
2018-05-05 04:00:00 8.6 3 Nordeste 19 Noroeste 0 -- -- 75
2018-05-05 03:00:00 8.6 3 Norte 9 Sudoeste 0 -- -- 75
2018-05-05 02:00:00 10.1 6 Norte 32 Oeste 0 -- -- 68
2018-05-05 01:00:00 10.6 22 Oeste 31 Oeste 0 -- -- 66
2018-05-05 00:00:00 11 3 Este 21 Oeste 0 -- -- 64
2018-05-04 23:00:00 12.4 8 Noroeste 33 Noroeste 0 -- -- 59
2018-05-04 22:00:00 12.9 11 Norte 29 Norte 0 -- -- 57
2018-05-04 21:00:00 14.9 12 Noroeste 27 Noroeste 0 -- -- 51
2018-05-04 20:00:00 16.8 9 Norte 22 Norte 0 -- -- 45
2018-05-04 19:00:00 19.2 7 Norte 22 Nordeste 0 -- -- 40
2018-05-04 18:00:00 18.6 10 Norte 26 Noroeste 0 -- -- 41
2018-05-04 17:00:00 17.9 12 Norte 25 Norte 0 -- -- 42
2018-05-04 16:00:00 18.5 10 Norte 25 Nordeste 0 -- -- 42
2018-05-04 15:00:00 17.6 11 Norte 32 Norte 0 -- -- 44
2018-05-04 14:00:00 15.9 13 Norte 36 Noroeste 0 -- -- 45
2018-05-04 13:00:00 14.2 15 Oeste 33 Noroeste 0 -- -- 47
2018-05-04 12:00:00 14.3 7 Noroeste 31 Noroeste 0 -- -- 47
2018-05-04 11:00:00 11.7 10 Noroeste 35 Noroeste 0 -- -- 53
2018-05-04 10:00:00 8.6 16 Noroeste 37 Oeste 0 -- -- 61
2018-05-04 09:00:00 7.3 13 Noroeste 44 Noroeste 0 -- -- 64
2018-05-04 08:00:00 4.4 18 Noroeste 40 Noroeste 0 -- -- 74
2018-05-04 07:00:00 3.3 18 Oeste 49 Oeste 0 -- -- 78
2018-05-04 06:00:00 3.6 12 Noroeste 44 Noroeste 0 -- -- 77
2018-05-04 05:00:00 3.7 19 Noroeste 46 Noroeste 0 -- -- 76
2018-05-04 04:00:00 4.7 25 Noroeste 45 Noroeste 0 -- -- 70
2018-05-04 03:00:00 4.7 15 Oeste 38 Noroeste 0 -- -- 71
2018-05-04 02:00:00 5.5 20 Noroeste 46 Norte 0 -- -- 68
2018-05-04 01:00:00 6.1 19 Noroeste 44 Noroeste 0 -- -- 66
2018-05-04 00:00:00 7.3 9 Noroeste 28 Noroeste 0 -- -- 62
2018-05-03 23:00:00 8.1 8 Norte 40 Norte 0 -- -- 60
2018-05-03 22:00:00 9.3 15 Norte 41 Norte 0 -- -- 55
2018-05-03 21:00:00 10.7 16 Norte 43 Norte 0 -- -- 54
2018-05-03 20:00:00 12.4 17 Norte 44 Norte 0 -- -- 47
2018-05-03 19:00:00 13.9 18 Norte 43 Norte 0 -- -- 40
2018-05-03 18:00:00 15.4 15 Norte 45 Nordeste 0 -- -- 35
2018-05-03 17:00:00 14.9 17 Norte 36 Nordeste 0 -- -- 39
2018-05-03 16:00:00 14.8 15 Norte 41 Noroeste 0 -- -- 44
2018-05-03 15:00:00 14.8 15 Norte 37 Norte 0 -- -- 48
2018-05-03 14:00:00 13.9 14 Norte 37 Norte 0 -- -- 56
2018-05-03 13:00:00 13.2 15 Nordeste 39 Nordeste 0 -- -- 60
2018-05-03 12:00:00 12.4 11 Norte 30 Noroeste 0 -- -- 68
2018-05-03 11:00:00 12.8 15 Norte 33 Norte 0 -- -- 69
2018-05-03 10:00:00 13 16 Noroeste 34 Noroeste 0 -- -- 66
2018-05-03 09:00:00 12.2 18 Noroeste 38 Noroeste 0 -- -- 72
2018-05-03 08:00:00 10 15 Norte 35 Nordeste 0 -- -- 77
2018-05-03 07:00:00 9.7 12 Norte 26 Oeste 0 -- -- 78
2018-05-03 06:00:00 9.8 8 Norte 30 Noroeste 0 -- -- 78
2018-05-03 05:00:00 10 8 Noroeste 38 Noroeste 0 -- -- 77
2018-05-03 04:00:00 10.4 12 Noroeste 32 Noroeste 0 -- -- 77
2018-05-03 03:00:00 10.6 11 Noroeste 26 Noroeste 0 -- -- 76
2018-05-03 02:00:00 11.1 14 Noroeste 31 Noroeste 0 -- -- 74
2018-05-03 01:00:00 11.1 2 Sudoeste 16 Noroeste 0 -- -- 72
2018-05-03 00:00:00 11.2 7 Noroeste 16 Noroeste 0 -- -- 69
2018-05-02 23:00:00 11.2 4 Sudoeste 26 Norte 0 -- -- 67
2018-05-02 22:00:00 12 11 Norte 26 Noroeste 0 -- -- 61
2018-05-02 21:00:00 12.8 11 Norte 26 Noroeste 0 -- -- 58
2018-05-02 20:00:00 13.6 10 Norte 27 Noroeste 0 -- -- 53
2018-05-02 19:00:00 14.7 10 Norte 29 Norte 0 -- -- 46
2018-05-02 18:00:00 16.6 10 Norte 30 Norte 0 -- -- 37
2018-05-02 17:00:00 16.3 13 Norte 31 Noroeste 0 -- -- 35
2018-05-02 16:00:00 16.2 11 Norte 28 Norte 0 -- -- 33
2018-05-02 15:00:00 16.6 10 Norte 25 Norte 0 -- -- 34
2018-05-02 14:00:00 16.5 10 Norte 24 Norte 0 -- -- 38
2018-05-02 13:00:00 15.6 6 Sudeste 17 Sur 0 -- -- 41
2018-05-02 12:00:00 14.6 8 Sur 16 Sur 0 -- -- 47
2018-05-02 11:00:00 13.6 5 Sur 10 Sur 0 -- -- 50
2018-05-02 10:00:00 11.3 5 Sudeste 10 Sur 0 -- -- 56
2018-05-02 09:00:00 9.4 4 Nordeste 8 Nordeste 0 -- -- 61
2018-05-02 08:00:00 5.7 2 Norte 6 Oeste 0 -- -- 74
2018-05-02 07:00:00 4.2 4 Norte 7 Noroeste 0 -- -- 75
2018-05-02 06:00:00 4.3 4 Norte 8 Nordeste 0 -- -- 71
2018-05-02 05:00:00 4.4 4 Nordeste 22 Noroeste 0 -- -- 68
2018-05-02 04:00:00 6.4 14 Noroeste 24 Noroeste 0 -- -- 56
2018-05-02 03:00:00 6.8 9 Oeste 23 Noroeste 0 -- -- 56
2018-05-02 02:00:00 6.3 5 Noroeste 18 Oeste 0 -- -- 59
2018-05-02 01:00:00 7.3 13 Oeste 19 Oeste 0 -- -- 53
2018-05-02 00:00:00 7.2 12 Oeste 17 Oeste 0 -- -- 54
2018-05-01 23:00:00 8.3 8 Noroeste 17 Norte 0 -- -- 49
2018-05-01 22:00:00 8.9 9 Noroeste 17 Noroeste 0 -- -- 47
2018-05-01 21:00:00 9.5 6 Noroeste 17 Noroeste 0 -- -- 45
2018-05-01 20:00:00 12.1 8 Noroeste 17 Noroeste 0 -- -- 38
2018-05-01 19:00:00 13.2 8 Norte 21 Nordeste 0 -- -- 35
2018-05-01 18:00:00 14 8 Noroeste 27 Noroeste 0 -- -- 38
2018-05-01 17:00:00 13.9 10 Norte 32 Nordeste 0 -- -- 34
2018-05-01 16:00:00 13.8 12 Norte 32 Nordeste 0 -- -- 37
2018-05-01 15:00:00 13.4 13 Norte 33 Nordeste 0 -- -- 40
2018-05-01 14:00:00 13 11 Norte 31 Norte 0 -- -- 42
2018-05-01 13:00:00 12.8 9 Norte 24 Norte 0 -- -- 39
2018-05-01 12:00:00 12.4 8 Nordeste 18 Nordeste 0 -- -- 42
2018-05-01 11:00:00 9.3 5 Oeste 17 Sudeste 0 -- -- 52
2018-05-01 10:00:00 10.3 9 Nordeste 15 Nordeste 0 -- -- 50
2018-05-01 09:00:00 7.4 2 Nordeste 9 Este 0 -- -- 69
2018-05-01 08:00:00 4.4 2 Nordeste 14 Norte 0 -- -- 78
2018-05-01 07:00:00 3 2 Este 13 Noroeste 0 -- -- 83
2018-05-01 06:00:00 4 4 Oeste 17 Noroeste 0 -- -- 79
2018-05-01 05:00:00 4.2 3 Norte 18 Oeste 0 -- -- 83
2018-05-01 04:00:00 5.2 7 Noroeste 24 Noroeste 0 -- -- 79
2018-05-01 03:00:00 5.4 11 Noroeste 26 Noroeste 0 -- -- 77
2018-05-01 02:00:00 5.3 13 Noroeste 31 Noroeste 0 -- -- 76
2018-05-01 01:00:00 5.5 11 Noroeste 26 Noroeste 0 -- -- 77
2018-05-01 00:00:00 5.2 6 Noroeste 26 Noroeste 0 -- -- 78
2018-04-30 23:00:00 5.6 17 Noroeste 33 Noroeste 0 -- -- 75
2018-04-30 22:00:00 5.9 8 Noroeste 27 Norte 0 -- -- 78
2018-04-30 21:00:00 6.1 10 Noroeste 23 Noroeste 0.2 -- -- 77
2018-04-30 20:00:00 6.7 5 Sudeste 10 Sur 0 -- -- 81
2018-04-30 19:00:00 7.4 4 Sudoeste 21 Noroeste 0 -- -- 78
2018-04-30 18:00:00 7.7 6 Norte 21 Sudoeste 0.2 -- -- 73
2018-04-30 17:00:00 8.5 4 Oeste 24 Oeste 0 -- -- 63
2018-04-30 16:00:00 10.1 5 Sudeste 22 Oeste 0.4 -- -- 64
2018-04-30 15:00:00 8.2 6 Sudoeste 21 Noroeste 0.2 -- -- 62
2018-04-30 14:00:00 8.3 9 Sur 28 Sur 0 -- -- 65
2018-04-30 13:00:00 6.8 11 Norte 23 Norte 0 -- -- 70
2018-04-30 12:00:00 8.1 5 Sudoeste 10 Sudoeste 0 -- -- 63
2018-04-30 11:00:00 8.8 5 Sur 10 Sudeste 0 -- -- 62
2018-04-30 10:00:00 8.4 4 Sur 9 Sur 0 -- -- 59
2018-04-30 09:00:00 7.2 3 Este 6 Nordeste 0 -- -- 66
2018-04-30 08:00:00 3.8 0 Calma 10 Noroeste 0 -- -- 82
2018-04-30 07:00:00 0.5 8 Noroeste 12 Noroeste 0 -- -- 95
2018-04-30 06:00:00 0.5 0 Calma 9 Oeste 0 -- -- 91
2018-04-30 05:00:00 1.1 3 Oeste 7 Oeste 0.2 -- -- 93
2018-04-30 04:00:00 1.8 4 Oeste 9 Noroeste 0 -- -- 93
2018-04-30 03:00:00 1.7 6 Noroeste 9 Noroeste 0 -- -- 93
2018-04-30 02:00:00 2.8 4 Oeste 11 Oeste 0 -- -- 86
2018-04-30 01:00:00 3.6 6 Noroeste 18 Noroeste 0 -- -- 84
2018-04-30 00:00:00 4.7 12 Noroeste 32 Noroeste 0 -- -- 78
2018-04-29 23:00:00 4.9 10 Noroeste 22 Noroeste 0 -- -- 79
2018-04-29 22:00:00 4.7 8 Oeste 29 Oeste 0 -- -- 83
2018-04-29 21:00:00 4.8 5 Noroeste 12 Oeste 0 -- -- 91
2018-04-29 20:00:00 6.3 3 Noroeste 26 Oeste 1.6 -- -- 87
2018-04-29 19:00:00 8.4 8 Oeste 25 Oeste 0 -- -- 71
2018-04-29 18:00:00 10.1 8 Sudoeste 29 Oeste 0.6 -- -- 75
2018-04-29 17:00:00 5.5 12 Oeste 32 Oeste 1 -- -- 87
2018-04-29 16:00:00 6.7 6 Sudoeste 24 Sudoeste 1.2 -- -- 82
2018-04-29 15:00:00 10 10 Sudoeste 30 Sur 0.4 -- -- 68
2018-04-29 14:00:00 13 9 Sur 31 Sur 0 -- -- 59
2018-04-29 13:00:00 10.3 11 Sudoeste 25 Sudoeste 0 -- -- 66
2018-04-29 12:00:00 7.5 3 Noroeste 12 Sudoeste 0.2 -- -- 85
2018-04-29 11:00:00 6.7 6 Sur 12 Sudeste 0 -- -- 86
2018-04-29 10:00:00 7.1 5 Sudeste 9 Sudeste 0.2 -- -- 87
2018-04-29 09:00:00 3.4 2 Norte 14 Sur 1.2 -- -- 95
2018-04-29 08:00:00 3 5 Sudeste 8 Sur 2 -- -- 95
2018-04-29 07:00:00 3.3 4 Sudeste 8 Sudeste 1.8 -- -- 95
2018-04-29 06:00:00 4 3 Sur 21 Sudeste 0.6 -- -- 94
2018-04-29 05:00:00 5 8 Sudeste 18 Sur 0.2 -- -- 89
2018-04-29 04:00:00 5.2 3 Norte 12 Este 0.2 -- -- 84
2018-04-29 03:00:00 5.9 4 Nordeste 9 Noroeste 0 -- -- 69
2018-04-29 02:00:00 5.4 3 Norte 11 Noroeste 0 -- -- 68
2018-04-29 01:00:00 5.6 3 Nordeste 13 Oeste 0 -- -- 67
2018-04-29 00:00:00 7.2 3 Oeste 15 Sudoeste 0 -- -- 59
2018-04-28 23:00:00 8.3 4 Oeste 14 Oeste 0 -- -- 54
2018-04-28 22:00:00 9.6 6 Oeste 20 Oeste 0 -- -- 51
2018-04-28 21:00:00 10 8 Sudoeste 18 Sudoeste 0 -- -- 53
2018-04-28 20:00:00 12.3 5 Sudoeste 20 Sur 0 -- -- 46
2018-04-28 19:00:00 14 10 Sudeste 38 Sur 0 -- -- 41
2018-04-28 18:00:00 14 12 Sur 28 Sur 0 -- -- 42
2018-04-28 17:00:00 14.2 14 Sur 33 Sur 0 -- -- 43
2018-04-28 16:00:00 15.2 12 Sur 35 Sudeste 0 -- -- 41
2018-04-28 15:00:00 15.8 13 Sur 37 Sur 0 -- -- 42
2018-04-28 14:00:00 15.6 13 Sur 34 Sur 0 -- -- 42
2018-04-28 13:00:00 14.1 11 Sur 30 Sur 0 -- -- 47
2018-04-28 12:00:00 13.9 15 Sur 32 Sur 0 -- -- 49
2018-04-28 11:00:00 14.2 13 Sur 24 Sur 0 -- -- 49
2018-04-28 10:00:00 13.3 5 Este 13 Este 0 -- -- 59
2018-04-28 09:00:00 9.2 8 Este 13 Este 0 -- -- 80
2018-04-28 08:00:00 7.1 5 Noroeste 9 Nordeste 0 -- -- 90
2018-04-28 07:00:00 7.3 3 Nordeste 10 Nordeste 0 -- -- 91
2018-04-28 06:00:00 7.6 4 Norte 9 Noroeste 0 -- -- 91
2018-04-28 05:00:00 8.5 4 Sudoeste 10 Norte 0 -- -- 85
2018-04-28 04:00:00 9.1 3 Norte 11 Oeste 0 -- -- 80
2018-04-28 03:00:00 9.5 0 Calma 12 Oeste 0 -- -- 79
2018-04-28 02:00:00 11.3 2 Norte 19 Oeste 0 -- -- 73
2018-04-28 01:00:00 13 10 Oeste 20 Oeste 0 -- -- 65
2018-04-28 00:00:00 12.1 0 Calma 9 Sur 0 -- -- 71
2018-04-27 23:00:00 12.9 2 Oeste 6 Sudoeste 0 -- -- 68
2018-04-27 22:00:00 14.4 2 Oeste 14 Oeste 0 -- -- 62
2018-04-27 21:00:00 15.8 6 Noroeste 15 Noroeste 0 -- -- 57
2018-04-27 20:00:00 17.4 5 Oeste 20 Oeste 0 -- -- 50
2018-04-27 19:00:00 21 6 Noroeste 17 Oeste 0 -- -- 41
2018-04-27 18:00:00 20 4 Norte 15 Noroeste 0 -- -- 44
2018-04-27 17:00:00 21 7 Nordeste 14 Nordeste 0 -- -- 42
2018-04-27 16:00:00 21.9 10 Norte 25 Nordeste 0 -- -- 38
2018-04-27 15:00:00 20.5 10 Noroeste 26 Norte 0 -- -- 37
2018-04-27 14:00:00 21 12 Nordeste 27 Nordeste 0 -- -- 38
2018-04-27 13:00:00 20.9 8 Norte 33 Noroeste 0 -- -- 36
2018-04-27 12:00:00 19.5 14 Norte 33 Noroeste 0 -- -- 39
2018-04-27 11:00:00 18.5 13 Noroeste 37 Norte 0 -- -- 43
2018-04-27 10:00:00 17.3 13 Noroeste 25 Norte 0 -- -- 49
2018-04-27 09:00:00 13.9 18 Noroeste 41 Noroeste 0 -- -- 67
2018-04-27 08:00:00 14.1 15 Noroeste 36 Noroeste 0 -- -- 70
2018-04-27 07:00:00 12.7 3 Sudoeste 14 Noroeste 0 -- -- 81
2018-04-27 06:00:00 13.2 0 Calma 9 Sur 0 -- -- 81
2018-04-27 05:00:00 13.6 3 Nordeste 12 Noroeste 0 -- -- 72
2018-04-27 04:00:00 14.2 6 Noroeste 14 Noroeste 0 -- -- 69
2018-04-27 03:00:00 15.2 9 Noroeste 18 Noroeste 0 -- -- 65
2018-04-27 02:00:00 14.3 3 Norte 13 Oeste 0 -- -- 70
2018-04-27 01:00:00 15.9 5 Noroeste 15 Oeste 0 -- -- 64
2018-04-27 00:00:00 16.8 10 Noroeste 15 Norte 0 -- -- 62
2018-04-26 23:00:00 17.2 3 Oeste 18 Oeste 0 -- -- 62
2018-04-26 22:00:00 17.2 6 Noroeste 13 Oeste 0 -- -- 60
2018-04-26 21:00:00 17.5 3 Noroeste 8 Noroeste 0 -- -- 64
2018-04-26 20:00:00 22.6 3 Nordeste 15 Oeste 0 -- -- 49
2018-04-26 19:00:00 20.9 10 Noroeste 23 Oeste 0 -- -- 53
2018-04-26 18:00:00 23.8 7 Este 22 Sudeste 0 -- -- 42
2018-04-26 17:00:00 24.6 12 Sudeste 26 Sudeste 0 -- -- 40
2018-04-26 16:00:00 24.6 13 Sur 23 Sur 0 -- -- 41
2018-04-26 15:00:00 24.5 10 Sudeste 20 Sudeste 0 -- -- 41
2018-04-26 14:00:00 24.5 9 Sur 20 Sudeste 0 -- -- 41
2018-04-26 13:00:00 22.2 7 Sudeste 15 Sudeste 0 -- -- 45
2018-04-26 12:00:00 21.4 6 Sur 14 Sudeste 0 -- -- 43
2018-04-26 11:00:00 21.2 4 Sur 10 Sur 0 -- -- 42
2018-04-26 10:00:00 19 4 Sudeste 8 Sudeste 0 -- -- 46
2018-04-26 09:00:00 17.3 2 Sudoeste 5 Sur 0 -- -- 48
2018-04-26 08:00:00 10.4 0 Calma 9 Noroeste 0 -- -- 71
2018-04-26 07:00:00 9.1 3 Oeste 5 Noroeste 0 -- -- 70
2018-04-26 06:00:00 10.4 3 Noroeste 6 Noroeste 0 -- -- 64
2018-04-26 05:00:00 10.9 3 Noroeste 7 Noroeste 0 -- -- 60
2018-04-26 04:00:00 11.7 2 Oeste 4 Sudoeste 0 -- -- 59
2018-04-26 03:00:00 12.6 3 Noroeste 9 Noroeste 0 -- -- 57
2018-04-26 02:00:00 13.9 5 Norte 11 Norte 0 -- -- 51
2018-04-26 01:00:00 14.7 6 Norte 13 Norte 0 -- -- 51
2018-04-26 00:00:00 16.9 7 Norte 20 Este 0 -- -- 48
2018-04-25 23:00:00 19.5 13 Nordeste 37 Este 0 -- -- 49
2018-04-25 22:00:00 20.8 15 Norte 36 Nordeste 0 -- -- 51
2018-04-25 21:00:00 21.5 9 Norte 24 Norte 0 -- -- 46
2018-04-25 20:00:00 21.2 4 Noroeste 11 Sur 0 -- -- 54
2018-04-25 19:00:00 22 7 Oeste 19 Nordeste 0 -- -- 46
2018-04-25 18:00:00 19.9 8 Nordeste 27 Este 0 -- -- 49
2018-04-25 17:00:00 23.5 9 Norte 41 Nordeste 0 -- -- 33
2018-04-25 16:00:00 26.7 18 Nordeste 35 Nordeste 0 -- -- 28
2018-04-25 15:00:00 26.9 13 Norte 34 Nordeste 0 -- -- 29
2018-04-25 14:00:00 26.7 12 Norte 27 Norte 0 -- -- 32
2018-04-25 13:00:00 26.3 7 Sur 15 Sur 0 -- -- 38
2018-04-25 12:00:00 23.7 7 Sudeste 18 Sudeste 0 -- -- 39
2018-04-25 11:00:00 24 5 Sudoeste 16 Oeste 0 -- -- 39
2018-04-25 10:00:00 19.3 4 Sur 14 Sudoeste 0 -- -- 48
2018-04-25 09:00:00 17.7 0 Calma 8 Noroeste 0 -- -- 63
2018-04-25 08:00:00 12.2 5 Noroeste 13 Noroeste 0 -- -- 68
2018-04-25 07:00:00 11.4 6 Noroeste 14 Noroeste 0 -- -- 69
2018-04-25 06:00:00 11 2 Sudoeste 9 Oeste 0 -- -- 72
2018-04-25 05:00:00 11.6 4 Oeste 10 Noroeste 0 -- -- 70
2018-04-25 04:00:00 12.6 5 Noroeste 9 Sudoeste 0 -- -- 65
2018-04-25 03:00:00 13.6 4 Sudoeste 9 Sur 0 -- -- 62
2018-04-25 02:00:00 13.7 3 Oeste 8 Noroeste 0 -- -- 61
2018-04-25 01:00:00 13.9 5 Noroeste 13 Noroeste 0 -- -- 61
2018-04-25 00:00:00 17.8 9 Noroeste 14 Noroeste 0 -- -- 47